sensor_id;sensor_type;location;lat;lon;timestamp;P1;durP1;ratioP1;P2;durP2;ratioP2
665;SDS011;315;48.738;9.126;2022-12-15T00:00:58;37.20;;;25.00;;
665;SDS011;315;48.738;9.126;2022-12-15T00:03:43;31.17;;;23.20;;
665;SDS011;315;48.738;9.126;2022-12-15T00:06:27;31.80;;;22.00;;
665;SDS011;315;48.738;9.126;2022-12-15T00:09:12;33.20;;;21.77;;
665;SDS011;315;48.738;9.126;2022-12-15T00:11:56;37.17;;;21.00;;
665;SDS011;315;48.738;9.126;2022-12-15T00:14:40;33.30;;;22.30;;
665;SDS011;315;48.738;9.126;2022-12-15T00:17:24;35.30;;;23.87;;
665;SDS011;315;48.738;9.126;2022-12-15T00:20:08;31.03;;;21.27;;
665;SDS011;315;48.738;9.126;2022-12-15T00:22:52;29.83;;;21.33;;
665;SDS011;315;48.738;9.126;2022-12-15T00:25:36;33.80;;;21.67;;
665;SDS011;315;48.738;9.126;2022-12-15T00:28:20;34.70;;;21.10;;
665;SDS011;315;48.738;9.126;2022-12-15T00:31:04;32.23;;;21.23;;
665;SDS011;315;48.738;9.126;2022-12-15T00:33:48;33.77;;;22.57;;
665;SDS011;315;48.738;9.126;2022-12-15T00:36:32;33.10;;;23.50;;
665;SDS011;315;48.738;9.126;2022-12-15T00:39:16;34.00;;;21.77;;
665;SDS011;315;48.738;9.126;2022-12-15T00:41:41;36.83;;;22.37;;
665;SDS011;315;48.738;9.126;2022-12-15T00:44:07;33.37;;;24.47;;
665;SDS011;315;48.738;9.126;2022-12-15T00:46:32;35.20;;;24.47;;
665;SDS011;315;48.738;9.126;2022-12-15T00:49:16;37.27;;;23.40;;
665;SDS011;315;48.738;9.126;2022-12-15T00:52:00;35.23;;;23.43;;
665;SDS011;315;48.738;9.126;2022-12-15T00:54:44;40.73;;;25.80;;
665;SDS011;315;48.738;9.126;2022-12-15T00:57:28;36.10;;;23.87;;
665;SDS011;315;48.738;9.126;2022-12-15T01:00:13;38.00;;;23.63;;
665;SDS011;315;48.738;9.126;2022-12-15T01:02:57;33.07;;;21.30;;
665;SDS011;315;48.738;9.126;2022-12-15T01:05:41;34.57;;;23.37;;
665;SDS011;315;48.738;9.126;2022-12-15T01:08:26;37.17;;;22.90;;
665;SDS011;315;48.738;9.126;2022-12-15T01:11:10;34.43;;;23.80;;
665;SDS011;315;48.738;9.126;2022-12-15T01:13:55;36.17;;;24.30;;
665;SDS011;315;48.738;9.126;2022-12-15T01:16:39;39.73;;;24.53;;
665;SDS011;315;48.738;9.126;2022-12-15T01:19:23;31.57;;;22.53;;
665;SDS011;315;48.738;9.126;2022-12-15T01:22:07;34.97;;;24.13;;
665;SDS011;315;48.738;9.126;2022-12-15T01:24:32;34.20;;;22.90;;
665;SDS011;315;48.738;9.126;2022-12-15T01:26:58;35.40;;;22.93;;
665;SDS011;315;48.738;9.126;2022-12-15T01:29:24;34.47;;;22.63;;
665;SDS011;315;48.738;9.126;2022-12-15T01:31:49;33.97;;;21.33;;
665;SDS011;315;48.738;9.126;2022-12-15T01:34:15;36.17;;;23.00;;
665;SDS011;315;48.738;9.126;2022-12-15T01:36:42;34.50;;;23.17;;
665;SDS011;315;48.738;9.126;2022-12-15T01:39:07;36.47;;;23.53;;
665;SDS011;315;48.738;9.126;2022-12-15T01:41:33;36.40;;;23.87;;
665;SDS011;315;48.738;9.126;2022-12-15T01:47:00;30.50;;;21.73;;
665;SDS011;315;48.738;9.126;2022-12-15T01:49:27;31.00;;;23.67;;
665;SDS011;315;48.738;9.126;2022-12-15T01:51:54;36.37;;;24.77;;
665;SDS011;315;48.738;9.126;2022-12-15T01:54:34;30.70;;;21.57;;
665;SDS011;315;48.738;9.126;2022-12-15T01:57:14;36.60;;;23.40;;
665;SDS011;315;48.738;9.126;2022-12-15T01:59:45;43.13;;;22.27;;
665;SDS011;315;48.738;9.126;2022-12-15T02:02:15;38.67;;;23.80;;
665;SDS011;315;48.738;9.126;2022-12-15T02:04:41;32.30;;;23.30;;
665;SDS011;315;48.738;9.126;2022-12-15T02:07:11;38.43;;;26.50;;
665;SDS011;315;48.738;9.126;2022-12-15T02:09:37;40.93;;;25.90;;
665;SDS011;315;48.738;9.126;2022-12-15T02:17:27;37.77;;;23.90;;
665;SDS011;315;48.738;9.126;2022-12-15T02:20:31;40.17;;;26.60;;
665;SDS011;315;48.738;9.126;2022-12-15T02:29:09;34.77;;;23.97;;
665;SDS011;315;48.738;9.126;2022-12-15T02:31:38;41.13;;;25.47;;
665;SDS011;315;48.738;9.126;2022-12-15T02:34:16;33.90;;;24.67;;
665;SDS011;315;48.738;9.126;2022-12-15T02:36:57;39.53;;;24.60;;
665;SDS011;315;48.738;9.126;2022-12-15T02:39:27;35.90;;;26.20;;
665;SDS011;315;48.738;9.126;2022-12-15T02:41:53;35.60;;;23.30;;
665;SDS011;315;48.738;9.126;2022-12-15T02:44:29;35.10;;;23.77;;
665;SDS011;315;48.738;9.126;2022-12-15T02:50:02;39.20;;;25.50;;
665;SDS011;315;48.738;9.126;2022-12-15T03:01:17;37.43;;;23.97;;
665;SDS011;315;48.738;9.126;2022-12-15T03:03:54;36.70;;;23.73;;
665;SDS011;315;48.738;9.126;2022-12-15T03:06:20;36.13;;;24.93;;
665;SDS011;315;48.738;9.126;2022-12-15T03:08:49;32.63;;;23.80;;
665;SDS011;315;48.738;9.126;2022-12-15T03:11:14;35.03;;;22.60;;
665;SDS011;315;48.738;9.126;2022-12-15T03:13:40;40.27;;;26.50;;
665;SDS011;315;48.738;9.126;2022-12-15T03:16:05;37.00;;;24.70;;
665;SDS011;315;48.738;9.126;2022-12-15T03:18:31;39.47;;;25.10;;
665;SDS011;315;48.738;9.126;2022-12-15T03:20:57;40.80;;;25.87;;
665;SDS011;315;48.738;9.126;2022-12-15T03:23:22;36.87;;;24.13;;
665;SDS011;315;48.738;9.126;2022-12-15T03:25:48;34.10;;;24.30;;
665;SDS011;315;48.738;9.126;2022-12-15T03:28:14;37.53;;;25.17;;
665;SDS011;315;48.738;9.126;2022-12-15T03:30:40;39.83;;;25.30;;
665;SDS011;315;48.738;9.126;2022-12-15T03:33:05;40.30;;;27.00;;
665;SDS011;315;48.738;9.126;2022-12-15T03:35:31;46.13;;;28.80;;
665;SDS011;315;48.738;9.126;2022-12-15T03:37:57;39.50;;;24.70;;
665;SDS011;315;48.738;9.126;2022-12-15T03:40:23;40.83;;;26.10;;
665;SDS011;315;48.738;9.126;2022-12-15T03:42:48;41.50;;;26.70;;
665;SDS011;315;48.738;9.126;2022-12-15T03:45:18;37.23;;;25.00;;
665;SDS011;315;48.738;9.126;2022-12-15T03:47:48;38.73;;;26.93;;
665;SDS011;315;48.738;9.126;2022-12-15T03:50:16;40.53;;;26.53;;
665;SDS011;315;48.738;9.126;2022-12-15T03:52:44;51.37;;;28.17;;
665;SDS011;315;48.738;9.126;2022-12-15T03:55:13;40.80;;;27.77;;
665;SDS011;315;48.738;9.126;2022-12-15T03:57:40;39.60;;;25.87;;
665;SDS011;315;48.738;9.126;2022-12-15T04:00:06;38.07;;;27.17;;
665;SDS011;315;48.738;9.126;2022-12-15T04:02:32;48.33;;;29.07;;
665;SDS011;315;48.738;9.126;2022-12-15T04:04:57;45.97;;;28.20;;
665;SDS011;315;48.738;9.126;2022-12-15T04:07:23;43.73;;;27.17;;
665;SDS011;315;48.738;9.126;2022-12-15T04:09:48;40.17;;;26.57;;
665;SDS011;315;48.738;9.126;2022-12-15T04:12:14;46.57;;;30.23;;
665;SDS011;315;48.738;9.126;2022-12-15T04:14:40;50.80;;;30.63;;
665;SDS011;315;48.738;9.126;2022-12-15T04:17:07;40.97;;;26.77;;
665;SDS011;315;48.738;9.126;2022-12-15T04:19:33;50.40;;;27.90;;
665;SDS011;315;48.738;9.126;2022-12-15T04:22:18;49.80;;;29.67;;
665;SDS011;315;48.738;9.126;2022-12-15T04:24:43;50.87;;;29.77;;
665;SDS011;315;48.738;9.126;2022-12-15T04:27:27;49.10;;;27.93;;
665;SDS011;315;48.738;9.126;2022-12-15T04:30:11;46.60;;;28.07;;
665;SDS011;315;48.738;9.126;2022-12-15T04:32:55;53.80;;;31.50;;
665;SDS011;315;48.738;9.126;2022-12-15T04:35:41;46.57;;;28.07;;
665;SDS011;315;48.738;9.126;2022-12-15T04:38:25;51.00;;;28.17;;
665;SDS011;315;48.738;9.126;2022-12-15T04:41:09;48.47;;;27.33;;
665;SDS011;315;48.738;9.126;2022-12-15T04:43:54;44.47;;;28.20;;
665;SDS011;315;48.738;9.126;2022-12-15T04:46:38;48.10;;;28.90;;
665;SDS011;315;48.738;9.126;2022-12-15T04:49:22;47.37;;;28.90;;
665;SDS011;315;48.738;9.126;2022-12-15T04:52:06;50.23;;;29.87;;
665;SDS011;315;48.738;9.126;2022-12-15T04:54:50;50.43;;;28.57;;
665;SDS011;315;48.738;9.126;2022-12-15T04:57:34;48.40;;;27.60;;
665;SDS011;315;48.738;9.126;2022-12-15T05:00:18;50.77;;;29.37;;
665;SDS011;315;48.738;9.126;2022-12-15T05:03:03;48.10;;;28.17;;
665;SDS011;315;48.738;9.126;2022-12-15T05:05:48;52.40;;;28.57;;
665;SDS011;315;48.738;9.126;2022-12-15T05:08:32;50.43;;;27.70;;
665;SDS011;315;48.738;9.126;2022-12-15T05:11:16;49.60;;;28.93;;
665;SDS011;315;48.738;9.126;2022-12-15T05:14:00;41.17;;;25.97;;
665;SDS011;315;48.738;9.126;2022-12-15T05:16:44;49.10;;;28.77;;
665;SDS011;315;48.738;9.126;2022-12-15T05:19:28;53.80;;;28.87;;
665;SDS011;315;48.738;9.126;2022-12-15T05:22:12;49.30;;;27.07;;
665;SDS011;315;48.738;9.126;2022-12-15T05:24:56;42.87;;;26.10;;
665;SDS011;315;48.738;9.126;2022-12-15T05:27:40;42.00;;;27.53;;
665;SDS011;315;48.738;9.126;2022-12-15T05:30:25;46.93;;;30.00;;
665;SDS011;315;48.738;9.126;2022-12-15T05:33:09;43.90;;;26.70;;
665;SDS011;315;48.738;9.126;2022-12-15T05:35:34;42.67;;;25.77;;
665;SDS011;315;48.738;9.126;2022-12-15T05:37:59;50.50;;;28.67;;
665;SDS011;315;48.738;9.126;2022-12-15T05:40:25;52.63;;;29.60;;
665;SDS011;315;48.738;9.126;2022-12-15T05:42:51;48.67;;;29.87;;
665;SDS011;315;48.738;9.126;2022-12-15T05:45:16;47.83;;;29.60;;
665;SDS011;315;48.738;9.126;2022-12-15T05:47:42;47.43;;;27.73;;
665;SDS011;315;48.738;9.126;2022-12-15T05:50:07;50.50;;;29.90;;
665;SDS011;315;48.738;9.126;2022-12-15T05:52:33;49.67;;;28.20;;
665;SDS011;315;48.738;9.126;2022-12-15T05:54:58;48.93;;;27.93;;
665;SDS011;315;48.738;9.126;2022-12-15T05:57:24;45.27;;;27.40;;
665;SDS011;315;48.738;9.126;2022-12-15T05:59:49;41.10;;;27.10;;
665;SDS011;315;48.738;9.126;2022-12-15T06:02:15;47.63;;;28.37;;
665;SDS011;315;48.738;9.126;2022-12-15T06:04:40;46.93;;;28.37;;
665;SDS011;315;48.738;9.126;2022-12-15T06:07:06;45.40;;;27.97;;
665;SDS011;315;48.738;9.126;2022-12-15T06:09:31;47.97;;;28.70;;
665;SDS011;315;48.738;9.126;2022-12-15T06:11:57;48.30;;;28.30;;
665;SDS011;315;48.738;9.126;2022-12-15T06:14:22;53.10;;;31.60;;
665;SDS011;315;48.738;9.126;2022-12-15T06:16:48;48.37;;;27.93;;
665;SDS011;315;48.738;9.126;2022-12-15T06:19:13;53.40;;;30.13;;
665;SDS011;315;48.738;9.126;2022-12-15T06:21:39;49.10;;;30.93;;
665;SDS011;315;48.738;9.126;2022-12-15T06:24:04;39.10;;;27.00;;
665;SDS011;315;48.738;9.126;2022-12-15T06:26:34;40.90;;;27.53;;
665;SDS011;315;48.738;9.126;2022-12-15T06:29:02;49.80;;;29.77;;
665;SDS011;315;48.738;9.126;2022-12-15T06:31:30;48.63;;;28.83;;
665;SDS011;315;48.738;9.126;2022-12-15T06:33:57;51.80;;;28.47;;
665;SDS011;315;48.738;9.126;2022-12-15T06:36:22;38.03;;;25.60;;
665;SDS011;315;48.738;9.126;2022-12-15T06:38:48;43.77;;;25.53;;
665;SDS011;315;48.738;9.126;2022-12-15T06:41:15;42.17;;;25.70;;
665;SDS011;315;48.738;9.126;2022-12-15T06:43:41;40.67;;;26.20;;
665;SDS011;315;48.738;9.126;2022-12-15T06:46:12;43.00;;;24.93;;
665;SDS011;315;48.738;9.126;2022-12-15T06:48:38;38.30;;;24.10;;
665;SDS011;315;48.738;9.126;2022-12-15T06:51:04;41.50;;;26.47;;
665;SDS011;315;48.738;9.126;2022-12-15T06:53:31;47.40;;;27.50;;
665;SDS011;315;48.738;9.126;2022-12-15T06:56:01;43.17;;;27.07;;
665;SDS011;315;48.738;9.126;2022-12-15T06:58:28;39.67;;;25.07;;
665;SDS011;315;48.738;9.126;2022-12-15T07:00:53;58.07;;;30.13;;
665;SDS011;315;48.738;9.126;2022-12-15T07:03:20;41.13;;;25.57;;
665;SDS011;315;48.738;9.126;2022-12-15T07:05:45;40.40;;;26.53;;
665;SDS011;315;48.738;9.126;2022-12-15T07:08:12;43.97;;;25.80;;
665;SDS011;315;48.738;9.126;2022-12-15T07:10:39;42.33;;;26.97;;
665;SDS011;315;48.738;9.126;2022-12-15T07:13:08;50.07;;;30.50;;
665;SDS011;315;48.738;9.126;2022-12-15T07:15:35;39.90;;;24.97;;
665;SDS011;315;48.738;9.126;2022-12-15T07:18:02;45.67;;;26.33;;
665;SDS011;315;48.738;9.126;2022-12-15T07:20:27;42.53;;;26.80;;
665;SDS011;315;48.738;9.126;2022-12-15T07:22:53;50.07;;;28.97;;
665;SDS011;315;48.738;9.126;2022-12-15T07:25:19;46.37;;;26.73;;
665;SDS011;315;48.738;9.126;2022-12-15T07:27:45;46.40;;;28.70;;
665;SDS011;315;48.738;9.126;2022-12-15T07:30:11;43.57;;;28.30;;
665;SDS011;315;48.738;9.126;2022-12-15T07:32:39;41.63;;;26.53;;
665;SDS011;315;48.738;9.126;2022-12-15T07:35:05;41.53;;;28.83;;
665;SDS011;315;48.738;9.126;2022-12-15T07:37:32;51.70;;;28.73;;
665;SDS011;315;48.738;9.126;2022-12-15T07:39:58;43.87;;;27.33;;
665;SDS011;315;48.738;9.126;2022-12-15T07:42:24;46.47;;;29.33;;
665;SDS011;315;48.738;9.126;2022-12-15T07:44:49;41.13;;;28.23;;
665;SDS011;315;48.738;9.126;2022-12-15T07:47:15;44.93;;;29.00;;
665;SDS011;315;48.738;9.126;2022-12-15T07:49:40;47.53;;;29.50;;
665;SDS011;315;48.738;9.126;2022-12-15T07:52:06;39.70;;;26.17;;
665;SDS011;315;48.738;9.126;2022-12-15T07:54:32;41.53;;;27.60;;
665;SDS011;315;48.738;9.126;2022-12-15T07:56:57;49.50;;;30.07;;
665;SDS011;315;48.738;9.126;2022-12-15T07:59:24;38.93;;;26.53;;
665;SDS011;315;48.738;9.126;2022-12-15T08:01:50;42.13;;;28.00;;
665;SDS011;315;48.738;9.126;2022-12-15T08:04:17;47.13;;;27.57;;
665;SDS011;315;48.738;9.126;2022-12-15T08:06:43;40.57;;;25.20;;
665;SDS011;315;48.738;9.126;2022-12-15T08:09:08;40.57;;;27.40;;
665;SDS011;315;48.738;9.126;2022-12-15T08:11:34;40.13;;;28.27;;
665;SDS011;315;48.738;9.126;2022-12-15T08:14:00;45.30;;;29.20;;
665;SDS011;315;48.738;9.126;2022-12-15T08:16:26;48.30;;;31.67;;
665;SDS011;315;48.738;9.126;2022-12-15T08:18:53;46.90;;;28.50;;
665;SDS011;315;48.738;9.126;2022-12-15T08:21:18;56.10;;;31.20;;
665;SDS011;315;48.738;9.126;2022-12-15T08:23:44;45.43;;;27.03;;
665;SDS011;315;48.738;9.126;2022-12-15T08:26:10;45.77;;;26.63;;
665;SDS011;315;48.738;9.126;2022-12-15T08:28:38;47.63;;;29.03;;
665;SDS011;315;48.738;9.126;2022-12-15T08:31:06;43.23;;;25.73;;
665;SDS011;315;48.738;9.126;2022-12-15T08:33:40;50.23;;;30.67;;
665;SDS011;315;48.738;9.126;2022-12-15T08:36:07;45.37;;;29.20;;
665;SDS011;315;48.738;9.126;2022-12-15T08:38:34;45.40;;;28.07;;
665;SDS011;315;48.738;9.126;2022-12-15T08:41:35;44.97;;;29.93;;
665;SDS011;315;48.738;9.126;2022-12-15T08:43:55;45.03;;;27.10;;
665;SDS011;315;48.738;9.126;2022-12-15T08:46:22;37.73;;;25.13;;
665;SDS011;315;48.738;9.126;2022-12-15T08:48:53;42.20;;;27.87;;
665;SDS011;315;48.738;9.126;2022-12-15T08:51:19;42.50;;;26.97;;
665;SDS011;315;48.738;9.126;2022-12-15T08:53:45;51.23;;;29.83;;
665;SDS011;315;48.738;9.126;2022-12-15T08:56:12;43.53;;;28.57;;
665;SDS011;315;48.738;9.126;2022-12-15T08:58:40;39.63;;;26.23;;
665;SDS011;315;48.738;9.126;2022-12-15T09:01:07;44.93;;;28.73;;
665;SDS011;315;48.738;9.126;2022-12-15T09:03:35;45.60;;;28.37;;
665;SDS011;315;48.738;9.126;2022-12-15T09:06:04;42.23;;;27.53;;
665;SDS011;315;48.738;9.126;2022-12-15T09:08:32;46.13;;;28.40;;
665;SDS011;315;48.738;9.126;2022-12-15T09:10:58;49.53;;;29.63;;
665;SDS011;315;48.738;9.126;2022-12-15T09:13:24;41.97;;;28.83;;
665;SDS011;315;48.738;9.126;2022-12-15T09:15:57;52.10;;;30.53;;
665;SDS011;315;48.738;9.126;2022-12-15T09:18:23;47.93;;;27.60;;
665;SDS011;315;48.738;9.126;2022-12-15T09:20:49;42.80;;;27.77;;
665;SDS011;315;48.738;9.126;2022-12-15T09:23:14;44.80;;;28.23;;
665;SDS011;315;48.738;9.126;2022-12-15T09:25:40;44.40;;;29.10;;
665;SDS011;315;48.738;9.126;2022-12-15T09:28:06;49.50;;;31.17;;
665;SDS011;315;48.738;9.126;2022-12-15T09:30:31;47.80;;;28.50;;
665;SDS011;315;48.738;9.126;2022-12-15T09:32:57;39.07;;;26.67;;
665;SDS011;315;48.738;9.126;2022-12-15T09:35:25;47.07;;;28.30;;
665;SDS011;315;48.738;9.126;2022-12-15T09:37:51;47.40;;;28.93;;
665;SDS011;315;48.738;9.126;2022-12-15T09:40:17;45.20;;;27.53;;
665;SDS011;315;48.738;9.126;2022-12-15T09:42:44;44.60;;;26.93;;
665;SDS011;315;48.738;9.126;2022-12-15T09:45:19;44.77;;;28.50;;
665;SDS011;315;48.738;9.126;2022-12-15T09:47:57;44.77;;;27.07;;
665;SDS011;315;48.738;9.126;2022-12-15T09:50:38;43.63;;;28.80;;
665;SDS011;315;48.738;9.126;2022-12-15T09:53:07;58.53;;;27.10;;
665;SDS011;315;48.738;9.126;2022-12-15T09:55:36;46.27;;;27.97;;
665;SDS011;315;48.738;9.126;2022-12-15T09:58:18;38.73;;;26.67;;
665;SDS011;315;48.738;9.126;2022-12-15T10:01:12;51.17;;;25.67;;
665;SDS011;315;48.738;9.126;2022-12-15T10:06:53;51.93;;;28.80;;
665;SDS011;315;48.738;9.126;2022-12-15T10:09:44;43.63;;;28.50;;
665;SDS011;315;48.738;9.126;2022-12-15T10:12:12;47.10;;;28.63;;
665;SDS011;315;48.738;9.126;2022-12-15T10:17:38;45.83;;;29.03;;
665;SDS011;315;48.738;9.126;2022-12-15T10:20:20;43.30;;;27.70;;
665;SDS011;315;48.738;9.126;2022-12-15T10:22:50;45.80;;;29.47;;
665;SDS011;315;48.738;9.126;2022-12-15T10:25:18;43.70;;;28.23;;
665;SDS011;315;48.738;9.126;2022-12-15T10:30:26;50.80;;;28.07;;
665;SDS011;315;48.738;9.126;2022-12-15T10:35:33;45.77;;;29.20;;
665;SDS011;315;48.738;9.126;2022-12-15T10:38:01;44.20;;;26.00;;
665;SDS011;315;48.738;9.126;2022-12-15T10:40:46;45.67;;;28.50;;
665;SDS011;315;48.738;9.126;2022-12-15T10:43:33;55.10;;;30.90;;
665;SDS011;315;48.738;9.126;2022-12-15T10:46:17;42.60;;;24.70;;
665;SDS011;315;48.738;9.126;2022-12-15T10:48:51;42.27;;;26.00;;
665;SDS011;315;48.738;9.126;2022-12-15T10:51:25;45.43;;;26.17;;
665;SDS011;315;48.738;9.126;2022-12-15T10:56:34;40.47;;;28.97;;
665;SDS011;315;48.738;9.126;2022-12-15T11:04:54;39.30;;;24.70;;
665;SDS011;315;48.738;9.126;2022-12-15T11:07:38;38.07;;;25.03;;
665;SDS011;315;48.738;9.126;2022-12-15T11:10:29;43.03;;;25.60;;
665;SDS011;315;48.738;9.126;2022-12-15T11:13:18;43.97;;;26.60;;
665;SDS011;315;48.738;9.126;2022-12-15T11:15:45;41.00;;;25.80;;
665;SDS011;315;48.738;9.126;2022-12-15T11:21:29;38.97;;;25.90;;
665;SDS011;315;48.738;9.126;2022-12-15T11:27:00;44.87;;;27.67;;
665;SDS011;315;48.738;9.126;2022-12-15T11:29:40;45.67;;;27.60;;
665;SDS011;315;48.738;9.126;2022-12-15T11:32:12;40.10;;;26.30;;
665;SDS011;315;48.738;9.126;2022-12-15T11:34:43;39.83;;;27.20;;
665;SDS011;315;48.738;9.126;2022-12-15T11:40:11;42.30;;;25.90;;
665;SDS011;315;48.738;9.126;2022-12-15T11:47:49;50.50;;;28.60;;
665;SDS011;315;48.738;9.126;2022-12-15T12:03:33;47.83;;;26.77;;
665;SDS011;315;48.738;9.126;2022-12-15T12:11:47;38.00;;;27.80;;
665;SDS011;315;48.738;9.126;2022-12-15T12:17:07;52.97;;;28.10;;
665;SDS011;315;48.738;9.126;2022-12-15T12:19:51;38.97;;;25.40;;
665;SDS011;315;48.738;9.126;2022-12-15T12:22:28;44.77;;;26.87;;
665;SDS011;315;48.738;9.126;2022-12-15T12:25:02;51.30;;;27.97;;
665;SDS011;315;48.738;9.126;2022-12-15T12:35:13;38.10;;;26.50;;
665;SDS011;315;48.738;9.126;2022-12-15T12:37:41;40.67;;;26.50;;
665;SDS011;315;48.738;9.126;2022-12-15T12:40:18;35.83;;;25.17;;
665;SDS011;315;48.738;9.126;2022-12-15T12:42:51;42.70;;;25.80;;
665;SDS011;315;48.738;9.126;2022-12-15T12:45:19;38.00;;;26.80;;
665;SDS011;315;48.738;9.126;2022-12-15T12:47:51;45.87;;;28.40;;
665;SDS011;315;48.738;9.126;2022-12-15T12:50:21;41.87;;;28.17;;
665;SDS011;315;48.738;9.126;2022-12-15T12:52:51;50.17;;;28.03;;
665;SDS011;315;48.738;9.126;2022-12-15T12:55:25;40.63;;;26.00;;
665;SDS011;315;48.738;9.126;2022-12-15T12:57:53;35.00;;;24.00;;
665;SDS011;315;48.738;9.126;2022-12-15T13:00:21;42.63;;;27.60;;
665;SDS011;315;48.738;9.126;2022-12-15T13:05:30;49.00;;;28.33;;
665;SDS011;315;48.738;9.126;2022-12-15T13:10:29;47.87;;;30.00;;
665;SDS011;315;48.738;9.126;2022-12-15T13:12:57;29.93;;;24.33;;
665;SDS011;315;48.738;9.126;2022-12-15T13:15:46;39.33;;;27.73;;
665;SDS011;315;48.738;9.126;2022-12-15T13:18:20;44.70;;;25.77;;
665;SDS011;315;48.738;9.126;2022-12-15T13:20:48;41.43;;;26.13;;
665;SDS011;315;48.738;9.126;2022-12-15T13:39:01;41.40;;;27.23;;
665;SDS011;315;48.738;9.126;2022-12-15T13:41:27;42.37;;;26.20;;
665;SDS011;315;48.738;9.126;2022-12-15T13:43:52;40.67;;;26.63;;
665;SDS011;315;48.738;9.126;2022-12-15T13:46:20;38.53;;;26.67;;
665;SDS011;315;48.738;9.126;2022-12-15T13:49:10;39.53;;;26.13;;
665;SDS011;315;48.738;9.126;2022-12-15T13:51:49;41.77;;;26.80;;
665;SDS011;315;48.738;9.126;2022-12-15T13:56:45;37.57;;;24.67;;
665;SDS011;315;48.738;9.126;2022-12-15T14:02:23;39.37;;;26.70;;
665;SDS011;315;48.738;9.126;2022-12-15T14:13:00;39.70;;;27.37;;
665;SDS011;315;48.738;9.126;2022-12-15T14:15:32;44.53;;;26.50;;
665;SDS011;315;48.738;9.126;2022-12-15T14:18:00;41.53;;;27.33;;
665;SDS011;315;48.738;9.126;2022-12-15T14:20:30;33.57;;;23.63;;
665;SDS011;315;48.738;9.126;2022-12-15T14:23:21;41.20;;;25.27;;
665;SDS011;315;48.738;9.126;2022-12-15T14:26:14;37.47;;;23.60;;
665;SDS011;315;48.738;9.126;2022-12-15T14:28:39;41.80;;;25.87;;
665;SDS011;315;48.738;9.126;2022-12-15T14:31:10;43.70;;;25.00;;
665;SDS011;315;48.738;9.126;2022-12-15T14:33:41;36.07;;;23.67;;
665;SDS011;315;48.738;9.126;2022-12-15T14:36:10;38.93;;;24.27;;
665;SDS011;315;48.738;9.126;2022-12-15T14:41:28;37.50;;;24.43;;
665;SDS011;315;48.738;9.126;2022-12-15T14:43:59;36.30;;;22.93;;
665;SDS011;315;48.738;9.126;2022-12-15T14:46:28;37.67;;;24.47;;
665;SDS011;315;48.738;9.126;2022-12-15T14:51:21;33.57;;;22.47;;
665;SDS011;315;48.738;9.126;2022-12-15T14:53:50;36.50;;;23.63;;
665;SDS011;315;48.738;9.126;2022-12-15T14:58:42;35.23;;;22.33;;
665;SDS011;315;48.738;9.126;2022-12-15T15:01:23;34.60;;;22.10;;
665;SDS011;315;48.738;9.126;2022-12-15T15:06:28;36.30;;;22.27;;
665;SDS011;315;48.738;9.126;2022-12-15T15:09:13;34.70;;;21.80;;
665;SDS011;315;48.738;9.126;2022-12-15T15:11:45;41.43;;;22.17;;
665;SDS011;315;48.738;9.126;2022-12-15T15:14:16;41.13;;;23.83;;
665;SDS011;315;48.738;9.126;2022-12-15T15:17:04;40.50;;;22.33;;
665;SDS011;315;48.738;9.126;2022-12-15T15:19:33;39.43;;;24.83;;
665;SDS011;315;48.738;9.126;2022-12-15T15:22:02;33.57;;;22.13;;
665;SDS011;315;48.738;9.126;2022-12-15T15:24:33;40.57;;;24.63;;
665;SDS011;315;48.738;9.126;2022-12-15T15:30:17;43.17;;;23.73;;
665;SDS011;315;48.738;9.126;2022-12-15T15:32:56;43.77;;;25.70;;
665;SDS011;315;48.738;9.126;2022-12-15T15:35:29;36.50;;;23.57;;
665;SDS011;315;48.738;9.126;2022-12-15T15:38:03;41.90;;;24.80;;
665;SDS011;315;48.738;9.126;2022-12-15T15:40:34;48.63;;;27.07;;
665;SDS011;315;48.738;9.126;2022-12-15T15:43:00;45.67;;;25.67;;
665;SDS011;315;48.738;9.126;2022-12-15T15:45:31;36.67;;;22.60;;
665;SDS011;315;48.738;9.126;2022-12-15T15:47:57;39.87;;;25.03;;
665;SDS011;315;48.738;9.126;2022-12-15T15:50:24;38.97;;;23.73;;
665;SDS011;315;48.738;9.126;2022-12-15T15:52:53;42.90;;;23.00;;
665;SDS011;315;48.738;9.126;2022-12-15T15:55:22;40.60;;;25.70;;
665;SDS011;315;48.738;9.126;2022-12-15T15:57:51;40.83;;;25.30;;
665;SDS011;315;48.738;9.126;2022-12-15T16:00:21;47.80;;;24.80;;
665;SDS011;315;48.738;9.126;2022-12-15T16:02:48;39.10;;;24.00;;
665;SDS011;315;48.738;9.126;2022-12-15T16:05:14;39.40;;;24.37;;
665;SDS011;315;48.738;9.126;2022-12-15T16:07:40;49.17;;;27.03;;
665;SDS011;315;48.738;9.126;2022-12-15T16:10:11;47.20;;;26.77;;
665;SDS011;315;48.738;9.126;2022-12-15T16:12:45;46.37;;;27.57;;
665;SDS011;315;48.738;9.126;2022-12-15T16:15:20;40.93;;;25.53;;
665;SDS011;315;48.738;9.126;2022-12-15T16:17:48;44.83;;;25.37;;
665;SDS011;315;48.738;9.126;2022-12-15T16:20:14;43.53;;;26.33;;
665;SDS011;315;48.738;9.126;2022-12-15T16:22:42;44.10;;;24.47;;
665;SDS011;315;48.738;9.126;2022-12-15T16:25:28;47.80;;;24.40;;
665;SDS011;315;48.738;9.126;2022-12-15T16:27:57;37.80;;;22.97;;
665;SDS011;315;48.738;9.126;2022-12-15T16:30:23;37.93;;;22.40;;
665;SDS011;315;48.738;9.126;2022-12-15T16:32:51;40.13;;;23.13;;
665;SDS011;315;48.738;9.126;2022-12-15T16:35:17;41.67;;;24.37;;
665;SDS011;315;48.738;9.126;2022-12-15T16:37:43;39.43;;;23.50;;
665;SDS011;315;48.738;9.126;2022-12-15T16:40:14;42.83;;;24.90;;
665;SDS011;315;48.738;9.126;2022-12-15T16:42:47;41.23;;;24.67;;
665;SDS011;315;48.738;9.126;2022-12-15T16:45:17;38.83;;;23.07;;
665;SDS011;315;48.738;9.126;2022-12-15T16:47:44;33.83;;;21.10;;
665;SDS011;315;48.738;9.126;2022-12-15T16:50:13;39.23;;;22.77;;
665;SDS011;315;48.738;9.126;2022-12-15T16:52:40;32.87;;;23.40;;
665;SDS011;315;48.738;9.126;2022-12-15T16:55:09;34.57;;;23.87;;
665;SDS011;315;48.738;9.126;2022-12-15T16:57:42;30.20;;;21.03;;
665;SDS011;315;48.738;9.126;2022-12-15T17:00:18;43.80;;;24.03;;
665;SDS011;315;48.738;9.126;2022-12-15T17:02:49;27.13;;;20.77;;
665;SDS011;315;48.738;9.126;2022-12-15T17:05:14;37.30;;;22.73;;
665;SDS011;315;48.738;9.126;2022-12-15T17:07:41;49.07;;;24.50;;
665;SDS011;315;48.738;9.126;2022-12-15T17:10:09;37.50;;;23.40;;
665;SDS011;315;48.738;9.126;2022-12-15T17:12:41;36.17;;;24.10;;
665;SDS011;315;48.738;9.126;2022-12-15T17:17:44;36.80;;;23.63;;
665;SDS011;315;48.738;9.126;2022-12-15T17:20:13;37.00;;;25.60;;
665;SDS011;315;48.738;9.126;2022-12-15T17:22:41;35.77;;;23.53;;
665;SDS011;315;48.738;9.126;2022-12-15T17:25:11;39.60;;;21.80;;
665;SDS011;315;48.738;9.126;2022-12-15T17:27:42;37.73;;;23.13;;
665;SDS011;315;48.738;9.126;2022-12-15T17:30:08;40.40;;;24.00;;
665;SDS011;315;48.738;9.126;2022-12-15T17:32:38;41.30;;;24.30;;
665;SDS011;315;48.738;9.126;2022-12-15T17:35:04;36.67;;;23.33;;
665;SDS011;315;48.738;9.126;2022-12-15T17:37:30;44.80;;;24.70;;
665;SDS011;315;48.738;9.126;2022-12-15T17:39:55;37.90;;;19.93;;
665;SDS011;315;48.738;9.126;2022-12-15T17:42:21;35.67;;;22.53;;
665;SDS011;315;48.738;9.126;2022-12-15T17:44:47;33.10;;;20.30;;
665;SDS011;315;48.738;9.126;2022-12-15T17:47:13;42.00;;;23.47;;
665;SDS011;315;48.738;9.126;2022-12-15T17:49:39;28.63;;;19.37;;
665;SDS011;315;48.738;9.126;2022-12-15T17:52:27;35.70;;;21.10;;
665;SDS011;315;48.738;9.126;2022-12-15T17:54:52;37.33;;;21.33;;
665;SDS011;315;48.738;9.126;2022-12-15T17:57:19;36.53;;;21.17;;
665;SDS011;315;48.738;9.126;2022-12-15T17:59:44;33.50;;;22.70;;
665;SDS011;315;48.738;9.126;2022-12-15T18:02:11;33.27;;;21.80;;